sensor_id;sensor_type;location;lat;lon;timestamp;P1;durP1;ratioP1;P2;durP2;ratioP2
64085;SDS011;50333;47.436;21.390;2022-09-17T00:01:30;7.07;;;2.95;;
64085;SDS011;50333;47.436;21.390;2022-09-17T00:03:59;5.72;;;2.90;;
64085;SDS011;50333;47.436;21.390;2022-09-17T00:06:31;4.95;;;2.62;;
64085;SDS011;50333;47.436;21.390;2022-09-17T00:09:01;3.47;;;2.85;;
64085;SDS011;50333;47.436;21.390;2022-09-17T00:11:30;6.57;;;2.87;;
64085;SDS011;50333;47.436;21.390;2022-09-17T00:14:00;3.00;;;2.70;;
64085;SDS011;50333;47.436;21.390;2022-09-17T00:16:30;5.72;;;3.03;;
64085;SDS011;50333;47.436;21.390;2022-09-17T00:19:00;7.62;;;3.17;;
64085;SDS011;50333;47.436;21.390;2022-09-17T00:21:30;3.62;;;2.72;;
64085;SDS011;50333;47.436;21.390;2022-09-17T00:23:59;8.05;;;3.33;;
64085;SDS011;50333;47.436;21.390;2022-09-17T00:26:28;4.15;;;3.17;;
64085;SDS011;50333;47.436;21.390;2022-09-17T00:28:58;4.68;;;3.05;;
64085;SDS011;50333;47.436;21.390;2022-09-17T00:31:27;4.70;;;2.72;;
64085;SDS011;50333;47.436;21.390;2022-09-17T00:33:56;4.82;;;2.70;;
64085;SDS011;50333;47.436;21.390;2022-09-17T00:36:25;4.45;;;2.75;;
64085;SDS011;50333;47.436;21.390;2022-09-17T00:38:54;4.62;;;2.87;;
64085;SDS011;50333;47.436;21.390;2022-09-17T00:41:25;3.97;;;2.83;;
64085;SDS011;50333;47.436;21.390;2022-09-17T00:43:56;4.32;;;2.72;;
64085;SDS011;50333;47.436;21.390;2022-09-17T00:46:29;3.12;;;2.55;;
64085;SDS011;50333;47.436;21.390;2022-09-17T00:49:10;4.85;;;2.85;;
64085;SDS011;50333;47.436;21.390;2022-09-17T00:54:32;4.05;;;3.00;;
64085;SDS011;50333;47.436;21.390;2022-09-17T00:57:02;5.95;;;2.87;;
64085;SDS011;50333;47.436;21.390;2022-09-17T00:59:30;3.05;;;2.72;;
64085;SDS011;50333;47.436;21.390;2022-09-17T01:01:59;5.20;;;2.50;;
64085;SDS011;50333;47.436;21.390;2022-09-17T01:04:26;4.57;;;3.30;;
64085;SDS011;50333;47.436;21.390;2022-09-17T01:12:45;9.60;;;2.87;;
64085;SDS011;50333;47.436;21.390;2022-09-17T01:23:50;3.60;;;3.12;;
64085;SDS011;50333;47.436;21.390;2022-09-17T01:29:18;4.40;;;3.03;;
64085;SDS011;50333;47.436;21.390;2022-09-17T01:32:14;6.35;;;3.35;;
64085;SDS011;50333;47.436;21.390;2022-09-17T01:34:54;4.65;;;3.25;;
64085;SDS011;50333;47.436;21.390;2022-09-17T01:38:02;4.97;;;3.40;;
64085;SDS011;50333;47.436;21.390;2022-09-17T01:40:40;4.53;;;2.97;;
64085;SDS011;50333;47.436;21.390;2022-09-17T01:43:21;4.87;;;3.20;;
64085;SDS011;50333;47.436;21.390;2022-09-17T01:45:50;4.62;;;2.92;;
64085;SDS011;50333;47.436;21.390;2022-09-17T01:48:19;5.95;;;3.67;;
64085;SDS011;50333;47.436;21.390;2022-09-17T01:50:56;4.78;;;3.55;;
64085;SDS011;50333;47.436;21.390;2022-09-17T01:53:34;6.53;;;3.50;;
64085;SDS011;50333;47.436;21.390;2022-09-17T01:56:07;4.30;;;3.30;;
64085;SDS011;50333;47.436;21.390;2022-09-17T01:58:39;4.70;;;3.50;;
64085;SDS011;50333;47.436;21.390;2022-09-17T02:01:12;7.47;;;3.35;;
64085;SDS011;50333;47.436;21.390;2022-09-17T02:03:49;4.80;;;3.42;;
64085;SDS011;50333;47.436;21.390;2022-09-17T02:06:24;6.00;;;3.42;;
64085;SDS011;50333;47.436;21.390;2022-09-17T02:08:58;6.57;;;3.03;;
64085;SDS011;50333;47.436;21.390;2022-09-17T02:11:29;7.05;;;3.50;;
64085;SDS011;50333;47.436;21.390;2022-09-17T02:14:04;6.12;;;3.37;;
64085;SDS011;50333;47.436;21.390;2022-09-17T02:16:38;5.82;;;3.60;;
64085;SDS011;50333;47.436;21.390;2022-09-17T02:22:02;4.87;;;3.42;;
64085;SDS011;50333;47.436;21.390;2022-09-17T02:24:48;5.60;;;3.60;;
64085;SDS011;50333;47.436;21.390;2022-09-17T02:30:05;6.85;;;3.28;;
64085;SDS011;50333;47.436;21.390;2022-09-17T02:32:33;4.68;;;3.50;;
64085;SDS011;50333;47.436;21.390;2022-09-17T02:35:01;5.43;;;4.10;;
64085;SDS011;50333;47.436;21.390;2022-09-17T02:37:29;4.80;;;3.37;;
64085;SDS011;50333;47.436;21.390;2022-09-17T02:39:57;6.60;;;3.92;;
64085;SDS011;50333;47.436;21.390;2022-09-17T02:42:31;4.95;;;3.67;;
64085;SDS011;50333;47.436;21.390;2022-09-17T02:51:17;8.85;;;3.78;;
64085;SDS011;50333;47.436;21.390;2022-09-17T02:54:05;4.85;;;3.78;;
64085;SDS011;50333;47.436;21.390;2022-09-17T02:59:55;4.47;;;3.55;;
64085;SDS011;50333;47.436;21.390;2022-09-17T03:02:38;4.78;;;3.72;;
64085;SDS011;50333;47.436;21.390;2022-09-17T03:05:09;6.60;;;4.10;;
64085;SDS011;50333;47.436;21.390;2022-09-17T03:07:38;4.70;;;3.83;;
64085;SDS011;50333;47.436;21.390;2022-09-17T03:10:06;7.87;;;4.30;;
64085;SDS011;50333;47.436;21.390;2022-09-17T03:12:34;6.85;;;4.25;;
64085;SDS011;50333;47.436;21.390;2022-09-17T03:15:03;7.62;;;3.80;;
64085;SDS011;50333;47.436;21.390;2022-09-17T03:17:31;4.57;;;3.90;;
64085;SDS011;50333;47.436;21.390;2022-09-17T03:19:59;4.22;;;3.85;;
64085;SDS011;50333;47.436;21.390;2022-09-17T03:22:27;4.47;;;4.07;;
64085;SDS011;50333;47.436;21.390;2022-09-17T03:24:55;6.15;;;3.97;;
64085;SDS011;50333;47.436;21.390;2022-09-17T03:27:22;9.80;;;4.40;;
64085;SDS011;50333;47.436;21.390;2022-09-17T03:29:51;4.62;;;3.80;;
64085;SDS011;50333;47.436;21.390;2022-09-17T03:32:18;5.75;;;4.22;;
64085;SDS011;50333;47.436;21.390;2022-09-17T03:34:46;5.12;;;3.67;;
64085;SDS011;50333;47.436;21.390;2022-09-17T03:37:14;6.12;;;3.78;;
64085;SDS011;50333;47.436;21.390;2022-09-17T03:39:42;5.90;;;3.87;;
64085;SDS011;50333;47.436;21.390;2022-09-17T03:42:10;4.25;;;3.80;;
64085;SDS011;50333;47.436;21.390;2022-09-17T03:44:38;4.62;;;3.62;;
64085;SDS011;50333;47.436;21.390;2022-09-17T03:47:11;4.03;;;3.62;;
64085;SDS011;50333;47.436;21.390;2022-09-17T03:49:39;6.37;;;3.90;;
64085;SDS011;50333;47.436;21.390;2022-09-17T03:52:07;3.83;;;3.50;;
64085;SDS011;50333;47.436;21.390;2022-09-17T03:54:35;5.25;;;3.92;;
64085;SDS011;50333;47.436;21.390;2022-09-17T03:57:02;5.15;;;3.97;;
64085;SDS011;50333;47.436;21.390;2022-09-17T03:59:30;5.62;;;3.70;;
64085;SDS011;50333;47.436;21.390;2022-09-17T04:01:58;5.40;;;3.50;;
64085;SDS011;50333;47.436;21.390;2022-09-17T04:04:26;5.75;;;3.85;;
64085;SDS011;50333;47.436;21.390;2022-09-17T04:06:53;4.40;;;3.62;;
64085;SDS011;50333;47.436;21.390;2022-09-17T04:09:21;4.95;;;3.78;;
64085;SDS011;50333;47.436;21.390;2022-09-17T04:11:49;4.28;;;3.60;;
64085;SDS011;50333;47.436;21.390;2022-09-17T04:14:17;5.28;;;4.00;;
64085;SDS011;50333;47.436;21.390;2022-09-17T04:16:44;6.07;;;3.67;;
64085;SDS011;50333;47.436;21.390;2022-09-17T04:19:12;7.37;;;3.62;;
64085;SDS011;50333;47.436;21.390;2022-09-17T04:21:40;4.75;;;3.72;;
64085;SDS011;50333;47.436;21.390;2022-09-17T04:24:08;4.72;;;3.83;;
64085;SDS011;50333;47.436;21.390;2022-09-17T04:26:36;6.62;;;3.75;;
64085;SDS011;50333;47.436;21.390;2022-09-17T04:29:03;8.10;;;3.83;;
64085;SDS011;50333;47.436;21.390;2022-09-17T04:31:32;6.40;;;4.15;;
64085;SDS011;50333;47.436;21.390;2022-09-17T04:34:00;7.05;;;4.35;;
64085;SDS011;50333;47.436;21.390;2022-09-17T04:36:27;4.90;;;4.18;;
64085;SDS011;50333;47.436;21.390;2022-09-17T04:38:55;4.40;;;4.00;;
64085;SDS011;50333;47.436;21.390;2022-09-17T04:41:23;6.20;;;4.40;;
64085;SDS011;50333;47.436;21.390;2022-09-17T04:43:50;4.95;;;3.83;;
64085;SDS011;50333;47.436;21.390;2022-09-17T04:46:18;5.43;;;4.30;;
64085;SDS011;50333;47.436;21.390;2022-09-17T04:48:46;4.82;;;3.83;;
64085;SDS011;50333;47.436;21.390;2022-09-17T04:51:14;4.90;;;4.20;;
64085;SDS011;50333;47.436;21.390;2022-09-17T04:53:41;9.38;;;4.35;;
64085;SDS011;50333;47.436;21.390;2022-09-17T04:56:09;7.12;;;4.62;;
64085;SDS011;50333;47.436;21.390;2022-09-17T04:58:37;7.87;;;4.70;;
64085;SDS011;50333;47.436;21.390;2022-09-17T05:01:05;5.40;;;4.43;;
64085;SDS011;50333;47.436;21.390;2022-09-17T05:03:33;4.50;;;4.07;;
64085;SDS011;50333;47.436;21.390;2022-09-17T05:06:00;6.30;;;4.55;;
64085;SDS011;50333;47.436;21.390;2022-09-17T05:08:28;7.53;;;5.47;;
64085;SDS011;50333;47.436;21.390;2022-09-17T05:10:56;6.62;;;5.03;;
64085;SDS011;50333;47.436;21.390;2022-09-17T05:13:23;8.65;;;5.37;;
64085;SDS011;50333;47.436;21.390;2022-09-17T05:15:52;8.13;;;4.45;;
64085;SDS011;50333;47.436;21.390;2022-09-17T05:18:23;4.90;;;4.15;;
64085;SDS011;50333;47.436;21.390;2022-09-17T05:20:52;8.32;;;4.60;;
64085;SDS011;50333;47.436;21.390;2022-09-17T05:23:19;4.28;;;3.87;;
64085;SDS011;50333;47.436;21.390;2022-09-17T05:25:47;4.40;;;4.00;;
64085;SDS011;50333;47.436;21.390;2022-09-17T05:28:15;5.90;;;4.72;;
64085;SDS011;50333;47.436;21.390;2022-09-17T05:30:42;6.35;;;4.40;;
64085;SDS011;50333;47.436;21.390;2022-09-17T05:33:10;4.82;;;4.35;;
64085;SDS011;50333;47.436;21.390;2022-09-17T05:35:38;9.98;;;5.12;;
64085;SDS011;50333;47.436;21.390;2022-09-17T05:38:06;6.70;;;4.72;;
64085;SDS011;50333;47.436;21.390;2022-09-17T05:40:34;7.32;;;5.12;;
64085;SDS011;50333;47.436;21.390;2022-09-17T05:43:04;7.35;;;4.78;;
64085;SDS011;50333;47.436;21.390;2022-09-17T05:45:33;8.27;;;4.65;;
64085;SDS011;50333;47.436;21.390;2022-09-17T05:48:02;7.55;;;4.82;;
64085;SDS011;50333;47.436;21.390;2022-09-17T05:50:31;7.37;;;5.10;;
64085;SDS011;50333;47.436;21.390;2022-09-17T05:53:17;8.80;;;4.78;;
64085;SDS011;50333;47.436;21.390;2022-09-17T05:55:45;6.30;;;5.32;;
64085;SDS011;50333;47.436;21.390;2022-09-17T05:58:14;8.73;;;5.05;;
64085;SDS011;50333;47.436;21.390;2022-09-17T06:00:43;9.77;;;5.28;;
64085;SDS011;50333;47.436;21.390;2022-09-17T06:03:13;8.63;;;5.10;;
64085;SDS011;50333;47.436;21.390;2022-09-17T06:05:51;6.45;;;5.22;;
64085;SDS011;50333;47.436;21.390;2022-09-17T06:08:21;5.97;;;4.57;;
64085;SDS011;50333;47.436;21.390;2022-09-17T06:10:49;7.97;;;5.03;;
64085;SDS011;50333;47.436;21.390;2022-09-17T06:13:17;8.93;;;4.82;;
64085;SDS011;50333;47.436;21.390;2022-09-17T06:15:49;9.52;;;5.05;;
64085;SDS011;50333;47.436;21.390;2022-09-17T06:18:18;8.85;;;5.28;;
64085;SDS011;50333;47.436;21.390;2022-09-17T06:20:53;7.82;;;4.97;;
64085;SDS011;50333;47.436;21.390;2022-09-17T06:23:21;8.15;;;5.40;;
64085;SDS011;50333;47.436;21.390;2022-09-17T06:25:52;8.68;;;5.10;;
64085;SDS011;50333;47.436;21.390;2022-09-17T06:28:21;9.52;;;5.75;;
64085;SDS011;50333;47.436;21.390;2022-09-17T06:30:50;6.60;;;5.07;;
64085;SDS011;50333;47.436;21.390;2022-09-17T06:33:22;11.95;;;5.55;;
64085;SDS011;50333;47.436;21.390;2022-09-17T06:36:00;9.30;;;6.03;;
64085;SDS011;50333;47.436;21.390;2022-09-17T06:38:30;7.28;;;5.60;;
64085;SDS011;50333;47.436;21.390;2022-09-17T06:40:59;8.07;;;5.87;;
64085;SDS011;50333;47.436;21.390;2022-09-17T06:43:27;8.52;;;6.62;;
64085;SDS011;50333;47.436;21.390;2022-09-17T06:48:24;8.18;;;5.95;;
64085;SDS011;50333;47.436;21.390;2022-09-17T06:51:00;10.40;;;6.32;;
64085;SDS011;50333;47.436;21.390;2022-09-17T06:53:30;8.40;;;5.87;;
64085;SDS011;50333;47.436;21.390;2022-09-17T06:55:58;6.50;;;5.32;;
64085;SDS011;50333;47.436;21.390;2022-09-17T06:58:35;6.37;;;5.18;;
64085;SDS011;50333;47.436;21.390;2022-09-17T07:01:04;5.65;;;4.97;;
64085;SDS011;50333;47.436;21.390;2022-09-17T07:03:32;7.22;;;5.30;;
64085;SDS011;50333;47.436;21.390;2022-09-17T07:06:00;6.57;;;5.32;;
64085;SDS011;50333;47.436;21.390;2022-09-17T07:08:30;6.68;;;4.72;;
64085;SDS011;50333;47.436;21.390;2022-09-17T07:11:01;5.82;;;5.15;;
64085;SDS011;50333;47.436;21.390;2022-09-17T07:13:29;5.95;;;4.82;;
64085;SDS011;50333;47.436;21.390;2022-09-17T07:15:57;6.05;;;4.32;;
64085;SDS011;50333;47.436;21.390;2022-09-17T07:18:27;4.05;;;3.60;;
64085;SDS011;50333;47.436;21.390;2022-09-17T07:20:58;5.47;;;4.80;;
64085;SDS011;50333;47.436;21.390;2022-09-17T07:23:29;6.80;;;4.90;;
64085;SDS011;50333;47.436;21.390;2022-09-17T07:26:02;6.68;;;4.70;;
64085;SDS011;50333;47.436;21.390;2022-09-17T07:28:32;5.68;;;4.30;;
64085;SDS011;50333;47.436;21.390;2022-09-17T07:31:03;6.03;;;4.30;;
64085;SDS011;50333;47.436;21.390;2022-09-17T07:33:32;4.95;;;4.15;;
64085;SDS011;50333;47.436;21.390;2022-09-17T07:36:03;4.87;;;4.15;;
64085;SDS011;50333;47.436;21.390;2022-09-17T07:41:11;7.22;;;4.47;;
64085;SDS011;50333;47.436;21.390;2022-09-17T07:43:40;6.53;;;4.35;;
64085;SDS011;50333;47.436;21.390;2022-09-17T07:46:16;6.90;;;4.85;;
64085;SDS011;50333;47.436;21.390;2022-09-17T07:48:46;6.82;;;4.55;;
64085;SDS011;50333;47.436;21.390;2022-09-17T07:51:21;4.72;;;4.32;;
64085;SDS011;50333;47.436;21.390;2022-09-17T07:53:51;6.68;;;4.80;;
64085;SDS011;50333;47.436;21.390;2022-09-17T07:56:21;6.03;;;4.60;;
64085;SDS011;50333;47.436;21.390;2022-09-17T07:58:49;4.97;;;4.47;;
64085;SDS011;50333;47.436;21.390;2022-09-17T08:01:17;8.45;;;4.65;;
64085;SDS011;50333;47.436;21.390;2022-09-17T08:03:48;6.50;;;4.67;;
64085;SDS011;50333;47.436;21.390;2022-09-17T08:06:26;5.25;;;4.75;;
64085;SDS011;50333;47.436;21.390;2022-09-17T08:08:55;4.85;;;4.40;;
64085;SDS011;50333;47.436;21.390;2022-09-17T08:11:25;8.15;;;4.95;;
64085;SDS011;50333;47.436;21.390;2022-09-17T08:14:14;5.20;;;4.70;;
64085;SDS011;50333;47.436;21.390;2022-09-17T08:16:42;5.32;;;4.82;;
64085;SDS011;50333;47.436;21.390;2022-09-17T08:19:11;6.60;;;4.80;;
64085;SDS011;50333;47.436;21.390;2022-09-17T08:21:39;9.18;;;5.10;;
64085;SDS011;50333;47.436;21.390;2022-09-17T08:24:07;5.80;;;4.57;;
64085;SDS011;50333;47.436;21.390;2022-09-17T08:26:34;6.53;;;4.60;;
64085;SDS011;50333;47.436;21.390;2022-09-17T08:29:02;6.75;;;4.90;;
64085;SDS011;50333;47.436;21.390;2022-09-17T08:31:30;5.97;;;4.50;;
64085;SDS011;50333;47.436;21.390;2022-09-17T08:33:59;7.20;;;4.80;;
64085;SDS011;50333;47.436;21.390;2022-09-17T08:36:27;8.32;;;4.72;;
64085;SDS011;50333;47.436;21.390;2022-09-17T08:38:56;6.20;;;4.68;;
64085;SDS011;50333;47.436;21.390;2022-09-17T08:41:27;4.85;;;4.20;;
64085;SDS011;50333;47.436;21.390;2022-09-17T08:47:02;5.40;;;4.50;;
64085;SDS011;50333;47.436;21.390;2022-09-17T08:49:50;5.35;;;4.68;;
64085;SDS011;50333;47.436;21.390;2022-09-17T09:00:45;4.95;;;4.45;;
64085;SDS011;50333;47.436;21.390;2022-09-17T09:06:35;7.45;;;4.05;;
64085;SDS011;50333;47.436;21.390;2022-09-17T09:09:13;4.93;;;4.53;;
64085;SDS011;50333;47.436;21.390;2022-09-17T09:11:43;12.45;;;4.47;;
64085;SDS011;50333;47.436;21.390;2022-09-17T09:17:07;6.35;;;4.30;;
64085;SDS011;50333;47.436;21.390;2022-09-17T09:19:43;7.07;;;4.45;;
64085;SDS011;50333;47.436;21.390;2022-09-17T09:22:17;5.28;;;4.37;;
64085;SDS011;50333;47.436;21.390;2022-09-17T09:28:16;5.93;;;4.28;;
64085;SDS011;50333;47.436;21.390;2022-09-17T09:31:12;5.32;;;4.05;;
64085;SDS011;50333;47.436;21.390;2022-09-17T09:33:43;6.22;;;4.60;;
64085;SDS011;50333;47.436;21.390;2022-09-17T09:36:14;4.62;;;4.20;;
64085;SDS011;50333;47.436;21.390;2022-09-17T09:39:02;5.95;;;4.12;;
64085;SDS011;50333;47.436;21.390;2022-09-17T09:44:11;4.57;;;4.05;;
64085;SDS011;50333;47.436;21.390;2022-09-17T09:49:54;7.68;;;4.05;;
64085;SDS011;50333;47.436;21.390;2022-09-17T09:58:04;7.28;;;4.20;;
64085;SDS011;50333;47.436;21.390;2022-09-17T10:00:48;4.53;;;4.12;;
64085;SDS011;50333;47.436;21.390;2022-09-17T10:03:21;6.70;;;4.20;;
64085;SDS011;50333;47.436;21.390;2022-09-17T10:08:24;5.35;;;4.40;;
64085;SDS011;50333;47.436;21.390;2022-09-17T10:11:18;4.78;;;4.28;;
64085;SDS011;50333;47.436;21.390;2022-09-17T10:13:48;5.65;;;4.32;;
64085;SDS011;50333;47.436;21.390;2022-09-17T10:16:19;6.22;;;3.95;;
64085;SDS011;50333;47.436;21.390;2022-09-17T10:19:15;6.72;;;4.05;;
64085;SDS011;50333;47.436;21.390;2022-09-17T10:21:41;5.40;;;4.53;;
64085;SDS011;50333;47.436;21.390;2022-09-17T10:24:43;4.93;;;4.22;;
64085;SDS011;50333;47.436;21.390;2022-09-17T10:27:16;6.45;;;3.97;;
64085;SDS011;50333;47.436;21.390;2022-09-17T10:29:47;8.77;;;3.87;;
64085;SDS011;50333;47.436;21.390;2022-09-17T10:37:51;4.18;;;3.78;;
64085;SDS011;50333;47.436;21.390;2022-09-17T10:42:48;4.57;;;3.45;;
64085;SDS011;50333;47.436;21.390;2022-09-17T10:47:53;3.80;;;3.40;;
64085;SDS011;50333;47.436;21.390;2022-09-17T10:53:02;4.85;;;3.33;;
64085;SDS011;50333;47.436;21.390;2022-09-17T11:18:28;3.62;;;3.30;;
64085;SDS011;50333;47.436;21.390;2022-09-17T11:21:26;3.85;;;3.12;;
64085;SDS011;50333;47.436;21.390;2022-09-17T11:35:40;3.87;;;3.12;;
64085;SDS011;50333;47.436;21.390;2022-09-17T11:38:19;3.12;;;2.83;;
64085;SDS011;50333;47.436;21.390;2022-09-17T11:41:00;4.47;;;3.03;;
64085;SDS011;50333;47.436;21.390;2022-09-17T11:43:36;3.92;;;2.92;;
64085;SDS011;50333;47.436;21.390;2022-09-17T11:46:09;2.97;;;2.72;;
64085;SDS011;50333;47.436;21.390;2022-09-17T11:48:45;5.18;;;3.12;;
64085;SDS011;50333;47.436;21.390;2022-09-17T11:51:20;4.70;;;3.05;;
64085;SDS011;50333;47.436;21.390;2022-09-17T11:54:23;5.22;;;3.00;;
64085;SDS011;50333;47.436;21.390;2022-09-17T12:02:22;8.52;;;3.15;;
64085;SDS011;50333;47.436;21.390;2022-09-17T12:04:59;3.78;;;3.28;;
64085;SDS011;50333;47.436;21.390;2022-09-17T12:13:53;3.20;;;2.62;;
64085;SDS011;50333;47.436;21.390;2022-09-17T12:16:30;4.60;;;2.95;;
64085;SDS011;50333;47.436;21.390;2022-09-17T12:24:40;5.10;;;3.17;;
64085;SDS011;50333;47.436;21.390;2022-09-17T12:30:21;4.15;;;2.83;;
64085;SDS011;50333;47.436;21.390;2022-09-17T12:36:02;6.30;;;4.07;;
64085;SDS011;50333;47.436;21.390;2022-09-17T12:39:00;3.97;;;3.33;;
64085;SDS011;50333;47.436;21.390;2022-09-17T12:50:31;4.68;;;3.10;;
64085;SDS011;50333;47.436;21.390;2022-09-17T12:56:01;3.08;;;2.60;;
64085;SDS011;50333;47.436;21.390;2022-09-17T13:07:50;3.20;;;2.90;;
64085;SDS011;50333;47.436;21.390;2022-09-17T13:16:48;4.82;;;3.20;;
64085;SDS011;50333;47.436;21.390;2022-09-17T13:21:53;4.35;;;3.08;;
64085;SDS011;50333;47.436;21.390;2022-09-17T13:24:28;5.25;;;3.12;;
64085;SDS011;50333;47.436;21.390;2022-09-17T13:26:58;3.42;;;3.12;;
64085;SDS011;50333;47.436;21.390;2022-09-17T13:37:33;5.53;;;3.30;;
64085;SDS011;50333;47.436;21.390;2022-09-17T13:40:03;5.23;;;3.10;;
64085;SDS011;50333;47.436;21.390;2022-09-17T13:45:13;3.42;;;2.95;;
64085;SDS011;50333;47.436;21.390;2022-09-17T13:47:55;6.78;;;3.62;;
64085;SDS011;50333;47.436;21.390;2022-09-17T14:08:49;7.60;;;3.45;;
64085;SDS011;50333;47.436;21.390;2022-09-17T14:19:37;4.87;;;3.97;;
64085;SDS011;50333;47.436;21.390;2022-09-17T14:24:25;5.00;;;3.50;;
64085;SDS011;50333;47.436;21.390;2022-09-17T14:30:29;5.50;;;3.53;;
64085;SDS011;50333;47.436;21.390;2022-09-17T14:35:46;3.67;;;3.00;;
64085;SDS011;50333;47.436;21.390;2022-09-17T14:38:17;3.37;;;2.78;;
64085;SDS011;50333;47.436;21.390;2022-09-17T14:40:58;3.80;;;3.25;;
64085;SDS011;50333;47.436;21.390;2022-09-17T14:43:54;4.03;;;3.62;;
64085;SDS011;50333;47.436;21.390;2022-09-17T14:46:26;7.22;;;3.17;;
64085;SDS011;50333;47.436;21.390;2022-09-17T14:51:50;4.87;;;3.42;;
64085;SDS011;50333;47.436;21.390;2022-09-17T14:54:22;3.58;;;3.28;;
64085;SDS011;50333;47.436;21.390;2022-09-17T15:02:18;4.28;;;3.72;;
64085;SDS011;50333;47.436;21.390;2022-09-17T15:04:47;4.07;;;3.42;;
64085;SDS011;50333;47.436;21.390;2022-09-17T15:07:15;5.72;;;3.78;;
64085;SDS011;50333;47.436;21.390;2022-09-17T15:09:43;5.12;;;4.20;;
64085;SDS011;50333;47.436;21.390;2022-09-17T15:12:11;5.00;;;4.37;;
64085;SDS011;50333;47.436;21.390;2022-09-17T15:14:44;9.57;;;5.00;;
64085;SDS011;50333;47.436;21.390;2022-09-17T15:17:16;5.22;;;4.03;;
64085;SDS011;50333;47.436;21.390;2022-09-17T15:19:49;6.07;;;4.28;;
64085;SDS011;50333;47.436;21.390;2022-09-17T15:22:27;6.00;;;4.80;;
64085;SDS011;50333;47.436;21.390;2022-09-17T15:27:34;5.93;;;5.43;;
64085;SDS011;50333;47.436;21.390;2022-09-17T15:30:08;6.87;;;5.60;;
64085;SDS011;50333;47.436;21.390;2022-09-17T15:32:47;6.22;;;5.60;;
64085;SDS011;50333;47.436;21.390;2022-09-17T15:35:26;8.63;;;6.22;;
64085;SDS011;50333;47.436;21.390;2022-09-17T15:38:00;9.85;;;6.10;;
64085;SDS011;50333;47.436;21.390;2022-09-17T15:40:49;6.45;;;5.78;;
64085;SDS011;50333;47.436;21.390;2022-09-17T15:43:25;8.18;;;5.97;;
64085;SDS011;50333;47.436;21.390;2022-09-17T15:45:56;9.10;;;6.45;;
64085;SDS011;50333;47.436;21.390;2022-09-17T15:48:42;10.93;;;6.43;;
64085;SDS011;50333;47.436;21.390;2022-09-17T15:53:50;8.20;;;6.60;;
64085;SDS011;50333;47.436;21.390;2022-09-17T15:56:33;10.37;;;7.00;;
64085;SDS011;50333;47.436;21.390;2022-09-17T15:59:04;9.73;;;6.82;;
64085;SDS011;50333;47.436;21.390;2022-09-17T16:02:02;11.23;;;6.82;;
64085;SDS011;50333;47.436;21.390;2022-09-17T16:04:30;9.40;;;6.40;;
64085;SDS011;50333;47.436;21.390;2022-09-17T16:09:51;10.00;;;6.95;;
64085;SDS011;50333;47.436;21.390;2022-09-17T16:12:23;8.38;;;6.68;;
64085;SDS011;50333;47.436;21.390;2022-09-17T16:14:54;8.88;;;7.32;;
64085;SDS011;50333;47.436;21.390;2022-09-17T16:17:28;11.07;;;7.32;;
64085;SDS011;50333;47.436;21.390;2022-09-17T16:22:46;8.30;;;6.95;;
64085;SDS011;50333;47.436;21.390;2022-09-17T16:25:15;11.57;;;7.50;;
64085;SDS011;50333;47.436;21.390;2022-09-17T16:30:48;10.18;;;7.50;;
64085;SDS011;50333;47.436;21.390;2022-09-17T16:33:16;14.00;;;6.82;;
64085;SDS011;50333;47.436;21.390;2022-09-17T16:35:45;9.27;;;6.37;;
64085;SDS011;50333;47.436;21.390;2022-09-17T16:38:13;9.35;;;6.12;;
64085;SDS011;50333;47.436;21.390;2022-09-17T16:40:43;8.45;;;6.32;;
64085;SDS011;50333;47.436;21.390;2022-09-17T16:43:13;11.80;;;6.15;;
64085;SDS011;50333;47.436;21.390;2022-09-17T16:45:41;7.20;;;5.82;;
64085;SDS011;50333;47.436;21.390;2022-09-17T16:48:09;9.30;;;5.30;;
64085;SDS011;50333;47.436;21.390;2022-09-17T16:50:38;6.32;;;5.05;;
64085;SDS011;50333;47.436;21.390;2022-09-17T16:53:07;10.60;;;4.95;;
64085;SDS011;50333;47.436;21.390;2022-09-17T16:55:35;8.13;;;5.20;;
64085;SDS011;50333;47.436;21.390;2022-09-17T16:58:03;6.68;;;5.32;;
64085;SDS011;50333;47.436;21.390;2022-09-17T17:00:30;7.55;;;5.55;;
64085;SDS011;50333;47.436;21.390;2022-09-17T17:02:58;6.55;;;5.50;;
64085;SDS011;50333;47.436;21.390;2022-09-17T17:05:26;9.23;;;5.25;;
64085;SDS011;50333;47.436;21.390;2022-09-17T17:07:54;6.30;;;5.25;;
64085;SDS011;50333;47.436;21.390;2022-09-17T17:10:23;11.25;;;5.32;;
64085;SDS011;50333;47.436;21.390;2022-09-17T17:12:53;11.95;;;5.37;;
64085;SDS011;50333;47.436;21.390;2022-09-17T17:15:20;5.07;;;4.57;;
64085;SDS011;50333;47.436;21.390;2022-09-17T17:17:48;6.45;;;4.30;;
64085;SDS011;50333;47.436;21.390;2022-09-17T17:20:17;6.30;;;4.20;;
64085;SDS011;50333;47.436;21.390;2022-09-17T17:22:45;5.28;;;3.70;;
64085;SDS011;50333;47.436;21.390;2022-09-17T17:25:13;5.93;;;3.40;;
64085;SDS011;50333;47.436;21.390;2022-09-17T17:27:41;5.70;;;3.67;;
64085;SDS011;50333;47.436;21.390;2022-09-17T17:30:11;3.87;;;3.40;;
64085;SDS011;50333;47.436;21.390;2022-09-17T17:32:47;5.40;;;3.42;;
64085;SDS011;50333;47.436;21.390;2022-09-17T17:35:17;8.52;;;3.33;;
64085;SDS011;50333;47.436;21.390;2022-09-17T17:37:52;3.25;;;2.95;;
64085;SDS011;50333;47.436;21.390;2022-09-17T17:40:20;8.50;;;3.60;;
64085;SDS011;50333;47.436;21.390;2022-09-17T17:42:51;3.33;;;3.03;;
64085;SDS011;50333;47.436;21.390;2022-09-17T17:45:19;3.87;;;2.80;;
64085;SDS011;50333;47.436;21.390;2022-09-17T17:47:47;3.97;;;2.78;;
64085;SDS011;50333;47.436;21.390;2022-09-17T17:50:16;8.60;;;3.22;;
64085;SDS011;50333;47.436;21.390;2022-09-17T17:52:43;7.03;;;3.15;;
64085;SDS011;50333;47.436;21.390;2022-09-17T17:55:14;10.02;;;3.47;;
64085;SDS011;50333;47.436;21.390;2022-09-17T17:57:43;4.18;;;3.40;;
64085;SDS011;50333;47.436;21.390;2022-09-17T18:00:11;4.62;;;3.15;;
64085;SDS011;50333;47.436;21.390;2022-09-17T18:02:41;4.30;;;3.42;;
64085;SDS011;50333;47.436;21.390;2022-09-17T18:05:09;4.43;;;3.50;;
64085;SDS011;50333;47.436;21.390;2022-09-17T18:07:37;7.00;;;2.90;;
64085;SDS011;50333;47.436;21.390;2022-09-17T18:10:06;2.87;;;2.58;;
64085;SDS011;50333;47.436;21.390;2022-09-17T18:12:34;2.95;;;2.42;;
64085;SDS011;50333;47.436;21.390;2022-09-17T18:15:03;3.03;;;2.40;;
64085;SDS011;50333;47.436;21.390;2022-09-17T18:17:32;2.55;;;2.35;;
64085;SDS011;50333;47.436;21.390;2022-09-17T18:20:03;6.05;;;2.58;;
64085;SDS011;50333;47.436;21.390;2022-09-17T18:22:31;7.65;;;2.17;;
64085;SDS011;50333;47.436;21.390;2022-09-17T18:24:59;5.53;;;2.12;;
64085;SDS011;50333;47.436;21.390;2022-09-17T18:27:27;4.28;;;2.28;;
64085;SDS011;50333;47.436;21.390;2022-09-17T18:29:54;4.30;;;1.90;;
64085;SDS011;50333;47.436;21.390;2022-09-17T18:32:23;3.28;;;1.98;;
64085;SDS011;50333;47.436;21.390;2022-09-17T18:34:50;4.18;;;1.90;;
64085;SDS011;50333;47.436;21.390;2022-09-17T18:37:18;4.00;;;1.90;;
64085;SDS011;50333;47.436;21.390;2022-09-17T18:39:46;2.85;;;2.42;;
64085;SDS011;50333;47.436;21.390;2022-09-17T18:42:30;2.50;;;2.12;;
64085;SDS011;50333;47.436;21.390;2022-09-17T18:44:58;2.75;;;2.15;;
64085;SDS011;50333;47.436;21.390;2022-09-17T18:47:26;3.65;;;2.33;;
64085;SDS011;50333;47.436;21.390;2022-09-17T18:49:56;2.85;;;2.40;;
64085;SDS011;50333;47.436;21.390;2022-09-17T18:52:24;2.95;;;2.03;;
64085;SDS011;50333;47.436;21.390;2022-09-17T18:54:53;3.47;;;2.60;;
64085;SDS011;50333;47.436;21.390;2022-09-17T18:57:20;3.05;;;2.00;;
64085;SDS011;50333;47.436;21.390;2022-09-17T18:59:48;3.92;;;2.22;;
64085;SDS011;50333;47.436;21.390;2022-09-17T19:02:16;7.40;;;2.60;;
64085;SDS011;50333;47.436;21.390;2022-09-17T19:04:43;3.85;;;1.95;;